Auburn, IN

10:58 AM EDT on August 20, 2019 (GMT -0400)
Auburn

Weather History for KGWB - May, 2019

Change the Weather History Date:

Wednesday, May 8, 2019

  Actual Average (WUND) Record (WUND)
Temperature  
Mean Temperature 53 °F -  
Max Temperature 64 °F - - (-1)
Min Temperature 42 °F - - (-1)
Degree Days  
Heating Degree Days 12    
Growing Degree Days 3 (Base 50)    
Moisture  
Dew Point 40 °F    
Average Humidity 64    
Maximum Humidity 76    
Minimum Humidity 45    
Precipitation  
Precipitation 0.00 in - - ()
Sea Level Pressure  
Sea Level Pressure 30.13 in    
Wind  
Wind Speed 12 mph (East)    
Max Wind Speed 20 mph    
Max Gust Speed 26 mph    
Visibility 10 miles    
Events Rain    
Averages and records for this station are not official NWS values.
T = Trace of Precipitation, MM = Missing Value Source: NWS Daily Summary

Daily Weather History Graph

Daily Weather History Graph

Search for Another Location

Airport or City:

Astronomy

May. 08, 2019 Rise Set
Actual Time 6:29 AM EDT 8:44 PM EDT
Civil Twilight 5:58 AM EDT 9:15 PM EDT
Nautical Twilight 5:20 AM EDT 9:53 PM EDT
Astronomical Twilight 4:39 AM EDT 10:35 PM EDT
Moon 9:24 AM EDT (5/8) No Moon Set
Length of Visible Light 15h 17m
Length of Day
14h 15m
Waxing Crescent, 15% of the Moon is Illuminated
May 8
Waxing Crescent
May 11
First Quarter
May 18
Full
May 26
Last Quarter
Jun 3
New

Hourly Weather History & Observations

Time (EDT) Temp. Windchill Dew Point Humidity Pressure Visibility Wind Dir Wind Speed Gust Speed Precip Events Conditions
12:15 AM 46.4 °F 41.9 °F 39.2 °F 76% 30.25 in 10.0 mi ENE 9.2 mph - N/A   Clear
12:35 AM 46.4 °F 42.4 °F 37.4 °F 71% 30.25 in 10.0 mi East 8.1 mph - N/A   Clear
12:50 AM 46.4 °F 42.4 °F 37.4 °F 71% 30.24 in 10.0 mi East 8.1 mph - N/A   Clear
1:15 AM 44.6 °F 39.7 °F 37.4 °F 76% 30.24 in 10.0 mi ENE 9.2 mph - N/A   Clear
1:35 AM 44.6 °F 40.2 °F 37.4 °F 76% 30.25 in 10.0 mi ENE 8.1 mph - N/A   Scattered Clouds
1:55 AM 44.6 °F 39.2 °F 37.4 °F 76% 30.23 in 10.0 mi ENE 10.4 mph - N/A   Scattered Clouds
2:15 AM 44.6 °F 40.2 °F 37.4 °F 76% 30.23 in 10.0 mi ENE 8.1 mph - N/A   Mostly Cloudy
2:35 AM 44.6 °F 39.7 °F 37.4 °F 76% 30.22 in 10.0 mi ENE 9.2 mph - N/A   Overcast
2:55 AM 44.6 °F 39.2 °F 37.4 °F 76% 30.23 in 10.0 mi ENE 10.4 mph - N/A   Overcast
3:15 AM 46.4 °F 41.5 °F 37.4 °F 71% 30.22 in 10.0 mi ENE 10.4 mph - N/A   Overcast
3:35 AM 46.4 °F 41.9 °F 35.6 °F 66% 30.22 in 10.0 mi ENE 9.2 mph - N/A   Overcast
3:55 AM 44.6 °F 39.2 °F 35.6 °F 71% 30.22 in 10.0 mi ENE 10.4 mph - N/A   Overcast
4:15 AM 46.4 °F 41.9 °F 33.8 °F 62% 30.22 in 10.0 mi ENE 9.2 mph - N/A   Overcast
4:35 AM 46.4 °F 42.4 °F 33.8 °F 62% 30.22 in 10.0 mi East 8.1 mph - N/A   Overcast
4:55 AM 44.6 °F 40.7 °F 33.8 °F 66% 30.23 in 10.0 mi East 6.9 mph - N/A   Overcast
5:15 AM 44.6 °F 39.7 °F 33.8 °F 66% 30.23 in 10.0 mi East 9.2 mph - N/A   Mostly Cloudy
5:35 AM 44.6 °F 39.2 °F 33.8 °F 66% 30.22 in 10.0 mi ENE 10.4 mph - N/A   Overcast
5:55 AM 44.6 °F 39.7 °F 35.6 °F 71% 30.23 in 10.0 mi ENE 9.2 mph - N/A Rain Light Rain
6:15 AM 44.6 °F 39.2 °F 35.6 °F 71% 30.23 in 10.0 mi ENE 10.4 mph - N/A   Overcast
6:35 AM 42.8 °F 35.8 °F 35.6 °F 76% 30.22 in 10.0 mi ENE 13.8 mph - N/A Rain Light Rain
6:55 AM 44.6 °F 39.7 °F 35.6 °F 71% 30.22 in 10.0 mi ENE 9.2 mph - N/A   Overcast
7:15 AM 44.6 °F 39.2 °F 37.4 °F 76% 30.23 in 10.0 mi East 10.4 mph - N/A   Overcast
7:35 AM 44.6 °F 38.4 °F 37.4 °F 76% 30.22 in 10.0 mi East 12.7 mph 17.3 mph N/A   Overcast
7:55 AM 44.6 °F 38.4 °F 37.4 °F 76% 30.22 in 10.0 mi ENE 12.7 mph - N/A   Overcast
8:15 AM 44.6 °F 38.4 °F 37.4 °F 76% 30.22 in 10.0 mi East 12.7 mph - N/A   Overcast
8:35 AM 46.4 °F 41.1 °F 37.4 °F 71% 30.22 in 10.0 mi East 11.5 mph 18.4 mph N/A   Overcast
8:55 AM 46.4 °F 40.4 °F 37.4 °F 71% 30.22 in 10.0 mi ENE 13.8 mph 18.4 mph N/A   Overcast
9:15 AM 46.4 °F 40.7 °F 37.4 °F 71% 30.21 in 10.0 mi ENE 12.7 mph 19.6 mph N/A   Mostly Cloudy
9:35 AM 48.2 °F - 39.2 °F 71% 30.20 in 10.0 mi ENE 12.7 mph 18.4 mph N/A   Mostly Cloudy
9:55 AM 50.0 °F - 41.0 °F 71% 30.20 in 10.0 mi ENE 18.4 mph 23.0 mph N/A   Scattered Clouds
10:15 AM 51.8 °F - 41.0 °F 67% 30.20 in 10.0 mi East 16.1 mph 23.0 mph N/A   Scattered Clouds
10:35 AM 51.8 °F - 41.0 °F 67% 30.19 in 10.0 mi East 15.0 mph 23.0 mph N/A   Clear
10:55 AM 53.6 °F - 42.8 °F 67% 30.19 in 10.0 mi ENE 19.6 mph 24.2 mph N/A   Clear
11:15 AM 53.6 °F - 41.0 °F 62% 30.19 in 10.0 mi East 17.3 mph 21.9 mph N/A   Clear
11:35 AM 55.4 °F - 42.8 °F 63% 30.18 in 10.0 mi East 15.0 mph 20.7 mph N/A   Clear
11:55 AM 57.2 °F - 42.8 °F 59% 30.18 in 10.0 mi East 16.1 mph - N/A   Clear
12:15 PM 59.0 °F - 42.8 °F 55% 30.17 in 10.0 mi ENE 16.1 mph - N/A   Clear
12:35 PM 59.0 °F - 44.6 °F 59% 30.16 in 10.0 mi East 16.1 mph 25.3 mph N/A   Scattered Clouds
12:55 PM 60.8 °F - 42.8 °F 52% 30.15 in 10.0 mi East 18.4 mph 24.2 mph N/A   Clear
1:15 PM 60.8 °F - 44.6 °F 55% 30.13 in 10.0 mi East 17.3 mph 23.0 mph N/A   Clear
1:35 PM 62.6 °F - 42.8 °F 48% 30.13 in 10.0 mi East 17.3 mph 25.3 mph N/A   Clear
1:55 PM 62.6 °F - 42.8 °F 48% 30.11 in 10.0 mi East 15.0 mph 24.2 mph N/A   Clear
2:15 PM 62.6 °F - 42.8 °F 48% 30.11 in 10.0 mi East 11.5 mph 26.5 mph N/A   Clear
2:35 PM 62.6 °F - 42.8 °F 48% 30.10 in 10.0 mi East 18.4 mph 25.3 mph N/A   Clear
2:55 PM 64.4 °F - 42.8 °F 45% 30.09 in 10.0 mi ENE 17.3 mph 24.2 mph N/A   Clear
3:15 PM 64.4 °F - 42.8 °F 45% 30.08 in 10.0 mi East 15.0 mph 26.5 mph N/A   Clear
3:35 PM 64.4 °F - 42.8 °F 45% 30.08 in 10.0 mi East 13.8 mph 21.9 mph N/A   Clear
3:55 PM 64.4 °F - 44.6 °F 49% 30.08 in 10.0 mi East 12.7 mph 18.4 mph N/A   Clear
4:15 PM 62.6 °F - 42.8 °F 48% 30.06 in 10.0 mi East 12.7 mph 23.0 mph N/A   Clear
4:35 PM 64.4 °F - 44.6 °F 49% 30.05 in 10.0 mi East 17.3 mph 21.9 mph N/A   Clear
4:55 PM 62.6 °F - 44.6 °F 52% 30.04 in 10.0 mi East 17.3 mph 26.5 mph N/A   Clear
5:15 PM 62.6 °F - 44.6 °F 52% 30.02 in 10.0 mi East 17.3 mph 23.0 mph N/A   Clear
5:35 PM 62.6 °F - 44.6 °F 52% 30.02 in 10.0 mi East 18.4 mph 21.9 mph N/A   Clear
5:55 PM 62.6 °F - 44.6 °F 52% 30.01 in 10.0 mi East 17.3 mph 26.5 mph N/A   Clear
6:15 PM 60.8 °F - 44.6 °F 55% 30.01 in 10.0 mi East 15.0 mph 23.0 mph N/A   Clear
6:35 PM 60.8 °F - 42.8 °F 52% 30.00 in 10.0 mi East 17.3 mph 20.7 mph N/A   Clear
6:55 PM 60.8 °F - 42.8 °F 52% 29.98 in 10.0 mi East 13.8 mph 24.2 mph N/A   Clear
7:15 PM 60.8 °F - 44.6 °F 55% 29.99 in 10.0 mi East 12.7 mph 17.3 mph N/A   Clear
7:35 PM 59.0 °F - 42.8 °F 55% 29.97 in 10.0 mi ENE 19.6 mph 25.3 mph N/A   Clear
7:55 PM 57.2 °F - 42.8 °F 59% 29.97 in 10.0 mi East 12.7 mph 19.6 mph N/A   Clear
8:15 PM 57.2 °F - 42.8 °F 59% 29.97 in 10.0 mi East 12.7 mph 20.7 mph N/A   Clear
8:35 PM 55.4 °F - 42.8 °F 63% 29.96 in 10.0 mi East 15.0 mph 21.9 mph N/A   Clear
8:55 PM 53.6 °F - 42.8 °F 67% 29.96 in 10.0 mi East 15.0 mph 19.6 mph N/A   Clear
9:15 PM 53.6 °F - 42.8 °F 67% 29.96 in 10.0 mi East 11.5 mph 17.3 mph N/A   Clear
9:55 PM 51.8 °F - 42.8 °F 71% 29.96 in 10.0 mi East 11.5 mph - N/A   Clear
10:15 PM 51.8 °F - 42.8 °F 71% 29.95 in 10.0 mi East 10.4 mph - N/A   Clear
10:35 PM 51.8 °F - 42.8 °F 71% 29.95 in 10.0 mi East 10.4 mph 17.3 mph N/A   Clear
10:55 PM 51.8 °F - 42.8 °F 71% 29.95 in 10.0 mi East 10.4 mph - N/A   Clear
11:15 PM 51.8 °F - 42.8 °F 71% 29.95 in 10.0 mi East 10.4 mph 16.1 mph N/A   Clear
11:35 PM 51.8 °F - 42.8 °F 71% 29.95 in 10.0 mi East 11.5 mph - N/A   Clear
11:55 PM 51.8 °F - 42.8 °F 71% 29.93 in 10.0 mi East 8.1 mph - N/A   Scattered Clouds